Air Resources Laboratory banner image
Air Resources Laboratory web site National Oceanic and Atmospheric Administration (NOAA)

az metar


KDMA 151158Z AUTO 21004KT 10SM CLR 05/M09 A3017 RMK AO2 SLP201 T00531089 10109
 20053 52015 $=
KDUG 151156Z AUTO 13003KT 10SM CLR 06/M01 A3022 RMK AO2 SLP206 T00561011 10094
 20022 53013=
KDVT 151153Z AUTO 08006KT 10SM CLR 13/M12 A3016 RMK AO2 SLP199 T01281117 10172
 20117 50007=
KFHU 151158Z AUTO 10004KT 10SM CLR 03/M06 A3022 RMK AO2 SLP208 T00261065 10075
 20026 52011=
KFLG 151157Z AUTO 00000KT 10SM CLR M01/M23 A3032 RMK AO2 SLP250 T10111228 10022
 21028 50006=
KGCN 151154Z AUTO 00000KT 10SM CLR M13/M21 A3034 RMK AO2 SLP291 T11281206 10033
 21128 58002 $=
KIFP 151155Z AUTO 02021KT 10SM CLR 15/M08 A3021 RMK AO2=
KIGM 151151Z AUTO 09006KT 10SM CLR 02/M11 A3028 RMK AO2 SLP226 T00171106 10067
 20000 56005=
KINW 151156Z AUTO 00000KT 10SM CLR M11/M17 A3035 RMK AO2 SLP294 T11111172 11028
 21117 50003=
KIWA 151150Z 08005KT 20SM SKC 15/M11 A3017=
KLUF 151158Z AUTO 04004KT 10SM CLR 11/M09 A3014 RMK AO2 SLP202 T01141090 10180
 20111 51008 VISNO RWY21 $=
KNYL 151157Z AUTO 33004KT 10SM CLR 13/M06 A3014 RMK AO2 SLP203 T01281061 10183
 20122 50005 $=
KOLS 151154Z AUTO VRB03KT 10SM CLR 07/M03 A3016 RMK AO2 SLP179 T00671033 10106
 20061 53009=
KPGA 151153Z AUTO 21004KT 10SM CLR 01/M12 A3034 RMK AO2 SLP268 T00061117 10050
 21006 58001 TSNO=
KPHX 151151Z 18003KT 10SM CLR 11/M06 A3015 RMK AO2 SLP202 T01111056 10183 20106
 51011=
KPRC 151153Z AUTO 20005KT 10SM CLR M04/M14 A3030 RMK AO2 SLP244 T10441144 10033
 21056 58002=
KSAD 151151Z AUTO 12008KT 10SM CLR 06/M09 A3024 RMK AO2 SLP224 T00611094 10072
 20033 51012=
KSDL 151153Z AUTO 02005KT 10SM CLR 14/M11 A3017 RMK AO2 SLP203 T01441106 10183
 20139 51008=
KSJN 151154Z AUTO 15003KT 10SM CLR M08/M12 A3031 RMK AO2 SLP262 T10781122 11028
 21089 50002 TSNO=
KSOW 151155Z AUTO 00000KT 10SM -DZ CLR M07/M12 A3033 RMK AO2=
KTUS 151153Z 16004KT 10SM CLR 06/M08 A3019 RMK AO2 SLP204 T00561083 10094 20039
 53015=